Arm, Mississippi
Current Conditions -  °F | °C
As of 4:35 PM on Thursday 23 Oct 2014 (Local Time) from K1R7 Reporting Station
Clear Clear  
Wind Chill: 19°   Ceiling: Unl
Heat Index: 19°   Visibility: 10mi
Dew Point:   Wind: 6mph
Humidity: 49%   Direction: 360°N
Pressure: 30.09"   Gusts: NA
Location:  31.5868°N, 90.03°W
Report Text: K1R7 232135Z AUTO 36005KT 10SM CLR 19/08 A3009 RMK AO2
Loading
Personal Weather Stations






























Interactive Weather Map
Tropical Storm Tracking
New forecast layout! Learn more

10-Day Weather Forecast

Advertisements
Track Severe Weather on mobile